createdAt,value
2019-05-29T00:00:50.928Z,9.13
2019-05-29T00:01:54.653Z,8.93
2019-05-29T00:02:58.891Z,8.20
2019-05-29T00:04:02.561Z,8.43
2019-05-29T00:05:08.263Z,8.43
2019-05-29T00:06:12.412Z,9.30
2019-05-29T00:07:17.059Z,8.83
2019-05-29T00:08:20.707Z,8.33
2019-05-29T00:09:24.981Z,8.50
2019-05-29T00:10:28.635Z,8.00
2019-05-29T00:11:32.795Z,7.60
2019-05-29T00:12:36.448Z,7.23
2019-05-29T00:13:40.972Z,7.63
2019-05-29T00:14:44.634Z,7.07
2019-05-29T00:15:48.869Z,7.30
2019-05-29T00:16:52.432Z,7.77
2019-05-29T00:17:56.648Z,8.20
2019-05-29T00:19:00.664Z,11.83
2019-05-29T00:20:06.285Z,18.10
2019-05-29T00:21:11.527Z,29.27
2019-05-29T00:22:16.146Z,28.17
2019-05-29T00:23:20.164Z,28.30
2019-05-29T00:24:25.238Z,26.60
2019-05-29T00:25:28.955Z,17.63
2019-05-29T00:26:33.189Z,11.67
2019-05-29T00:27:36.838Z,9.73
2019-05-29T00:28:41.149Z,12.17
2019-05-29T00:29:44.710Z,11.10
2019-05-29T00:30:48.971Z,11.77
2019-05-29T00:31:52.627Z,10.87
2019-05-29T00:32:56.845Z,10.10
2019-05-29T00:34:00.867Z,8.43
2019-05-29T00:35:08.348Z,8.87
2019-05-29T00:36:12.386Z,7.80
2019-05-29T00:37:16.757Z,7.60
2019-05-29T00:38:20.344Z,6.80
2019-05-29T00:39:24.869Z,6.13
2019-05-29T00:40:28.513Z,6.40
2019-05-29T00:41:32.770Z,6.30
2019-05-29T00:42:36.399Z,6.50
2019-05-29T00:43:40.585Z,6.63
2019-05-29T00:44:44.181Z,7.07
2019-05-29T00:45:48.407Z,7.20
2019-05-29T00:46:52.028Z,6.83
2019-05-29T00:47:56.165Z,6.40
2019-05-29T00:48:59.842Z,6.93
2019-05-29T00:50:05.057Z,6.93
2019-05-29T00:51:08.960Z,7.07
2019-05-29T00:52:14.302Z,6.57
2019-05-29T00:53:18.408Z,5.90
2019-05-29T00:54:22.691Z,7.33
2019-05-29T00:55:26.313Z,6.27
2019-05-29T00:56:30.267Z,6.67
2019-05-29T00:57:33.915Z,7.00
2019-05-29T00:58:41.325Z,6.70
2019-05-29T00:59:43.535Z,6.17
2019-05-29T01:00:47.755Z,6.73
2019-05-29T01:01:51.400Z,6.87
2019-05-29T01:02:55.683Z,7.53
2019-05-29T01:03:59.313Z,7.13
2019-05-29T01:05:03.788Z,7.63
2019-05-29T01:06:07.260Z,7.97
2019-05-29T01:07:12.274Z,7.60
2019-05-29T01:08:16.487Z,7.77
2019-05-29T01:09:20.866Z,8.37
2019-05-29T01:10:24.601Z,8.47
2019-05-29T01:11:28.720Z,8.00
2019-05-29T01:12:32.346Z,7.87
2019-05-29T01:13:36.558Z,7.90
2019-05-29T01:14:49.641Z,8.43
2019-05-29T01:15:46.114Z,8.83
2019-05-29T01:16:50.098Z,8.60
2019-05-29T01:17:54.340Z,8.07
2019-05-29T01:18:59.831Z,8.03
2019-05-29T01:20:04.342Z,7.87
2019-05-29T01:21:08.033Z,8.17
2019-05-29T01:22:12.332Z,8.13
2019-05-29T01:23:16.272Z,8.67
2019-05-29T01:24:20.698Z,9.03
2019-05-29T01:25:24.361Z,8.20
2019-05-29T01:26:28.615Z,8.60
2019-05-29T01:27:32.269Z,8.13
2019-05-29T01:28:36.490Z,9.00
2019-05-29T01:29:40.073Z,9.10
2019-05-29T01:30:44.302Z,8.30
2019-05-29T01:31:47.973Z,9.33
2019-05-29T01:32:52.213Z,9.27
2019-05-29T01:33:55.843Z,9.87
2019-05-29T01:35:00.061Z,10.63
2019-05-29T01:36:03.733Z,10.00
2019-05-29T01:37:07.924Z,10.20
2019-05-29T01:38:11.498Z,10.90
2019-05-29T01:39:15.648Z,11.27
2019-05-29T01:40:24.750Z,10.90
2019-05-29T01:41:25.389Z,12.70
2019-05-29T01:42:29.082Z,12.90
2019-05-29T01:43:33.317Z,14.03
2019-05-29T01:44:36.951Z,27.07
2019-05-29T01:45:41.050Z,97.20
2019-05-29T01:46:44.707Z,94.30
2019-05-29T01:47:48.979Z,94.47
2019-05-29T01:48:52.624Z,102.40
2019-05-29T01:49:56.806Z,109.67
2019-05-29T01:51:00.452Z,116.73
2019-05-29T01:52:04.684Z,115.23
2019-05-29T01:53:08.375Z,111.53
2019-05-29T01:54:12.626Z,107.10
2019-05-29T01:55:17.596Z,109.17
2019-05-29T01:56:22.080Z,92.23
2019-05-29T01:57:25.739Z,92.90
2019-05-29T01:58:29.997Z,82.77
2019-05-29T01:59:33.654Z,81.23
2019-05-29T02:00:37.896Z,67.57
2019-05-29T02:01:41.788Z,69.90
2019-05-29T02:02:46.357Z,67.70
2019-05-29T02:03:49.999Z,63.13
2019-05-29T02:04:54.217Z,59.57
2019-05-29T02:05:57.885Z,57.47
2019-05-29T02:07:02.103Z,58.10
2019-05-29T02:08:05.752Z,53.40
2019-05-29T02:09:10.038Z,39.27
2019-05-29T02:10:13.771Z,36.57
2019-05-29T02:11:19.112Z,31.03
2019-05-29T02:12:22.833Z,24.23
2019-05-29T02:13:27.576Z,18.57
2019-05-29T02:14:31.361Z,14.87
2019-05-29T02:15:35.962Z,14.13
2019-05-29T02:16:39.620Z,11.73
2019-05-29T02:17:43.820Z,10.90
2019-05-29T02:18:47.408Z,10.10
2019-05-29T02:19:52.174Z,9.60
2019-05-29T02:20:55.735Z,9.80
2019-05-29T02:21:59.958Z,10.50
2019-05-29T02:23:03.963Z,9.90
2019-05-29T02:24:08.185Z,10.00
2019-05-29T02:25:15.719Z,10.40
2019-05-29T02:26:18.178Z,10.27
2019-05-29T02:27:21.855Z,10.47
2019-05-29T02:28:26.815Z,9.77
2019-05-29T02:29:30.648Z,10.10
2019-05-29T02:30:34.919Z,9.93
2019-05-29T02:31:38.570Z,9.47
2019-05-29T02:32:42.782Z,9.60
2019-05-29T02:33:46.422Z,10.17
2019-05-29T02:34:50.637Z,9.23
2019-05-29T02:35:54.317Z,9.33
2019-05-29T02:36:58.532Z,9.70
2019-05-29T02:38:02.129Z,9.00
2019-05-29T02:39:08.454Z,8.77
2019-05-29T02:40:12.512Z,9.60
2019-05-29T02:41:16.611Z,9.00
2019-05-29T02:42:20.998Z,9.53
2019-05-29T02:43:27.214Z,9.13
2019-05-29T02:44:30.716Z,8.97
2019-05-29T02:45:53.023Z,9.70
2019-05-29T02:46:40.537Z,8.27
2019-05-29T02:47:44.755Z,8.63
2019-05-29T02:48:48.407Z,9.33
2019-05-29T02:49:52.619Z,9.23
2019-05-29T02:50:56.542Z,8.90
2019-05-29T02:52:00.849Z,9.83
2019-05-29T02:53:04.481Z,9.20
2019-05-29T02:54:08.699Z,9.80
2019-05-29T02:55:12.700Z,12.00
2019-05-29T02:56:17.296Z,15.03
2019-05-29T02:57:22.450Z,15.70
2019-05-29T02:58:27.777Z,14.93
2019-05-29T02:59:32.560Z,16.80
2019-05-29T03:00:54.175Z,16.07
2019-05-29T03:01:57.837Z,10.50
2019-05-29T03:03:02.093Z,9.40
2019-05-29T03:04:05.729Z,10.20
2019-05-29T03:05:10.251Z,8.97
2019-05-29T03:06:13.913Z,10.73
2019-05-29T03:07:18.153Z,13.37
2019-05-29T03:08:24.391Z,16.27
2019-05-29T03:09:28.672Z,16.07
2019-05-29T03:10:33.160Z,20.10
2019-05-29T03:11:37.457Z,25.50
2019-05-29T03:12:41.671Z,33.03
2019-05-29T03:13:46.357Z,33.13
2019-05-29T03:14:56.403Z,31.57
2019-05-29T03:17:25.658Z,30.30
2019-05-29T03:18:30.378Z,27.60
2019-05-29T03:19:35.376Z,32.53
2019-05-29T03:20:39.599Z,35.30
2019-05-29T03:21:43.263Z,35.10
2019-05-29T03:22:47.487Z,33.43
2019-05-29T03:23:51.127Z,32.77
2019-05-29T03:24:55.413Z,32.40
2019-05-29T03:25:59.357Z,28.97
2019-05-29T03:27:03.585Z,15.83
2019-05-29T03:28:07.243Z,15.53
2019-05-29T03:29:11.475Z,17.03
2019-05-29T03:30:15.520Z,14.97
2019-05-29T03:31:19.743Z,15.03
2019-05-29T03:32:23.725Z,11.97
2019-05-29T03:33:32.453Z,12.63
2019-05-29T03:34:39.563Z,10.50
2019-05-29T03:35:46.733Z,11.00
2019-05-29T03:36:48.355Z,11.00
2019-05-29T03:37:50.503Z,10.13
2019-05-29T03:38:54.210Z,11.73
2019-05-29T03:39:58.415Z,11.23
2019-05-29T03:41:02.095Z,10.03
2019-05-29T03:42:06.334Z,9.50
2019-05-29T03:43:10.332Z,10.57
2019-05-29T03:44:14.602Z,9.20
2019-05-29T03:45:18.254Z,9.27
2019-05-29T03:46:31.502Z,8.60
2019-05-29T03:47:28.758Z,9.63
2019-05-29T03:48:34.419Z,10.03
2019-05-29T03:49:38.227Z,11.50
2019-05-29T03:50:42.568Z,9.97
2019-05-29T03:51:46.232Z,10.90
2019-05-29T03:52:50.878Z,10.40
2019-05-29T03:53:54.526Z,8.90
2019-05-29T03:54:58.807Z,10.03
2019-05-29T03:56:02.439Z,9.87
2019-05-29T03:57:06.660Z,9.53
2019-05-29T03:58:10.315Z,9.40
2019-05-29T03:59:14.535Z,9.13
2019-05-29T04:00:18.699Z,9.33
2019-05-29T04:01:22.922Z,9.83
2019-05-29T04:02:26.785Z,10.40
2019-05-29T04:03:31.156Z,10.10
2019-05-29T04:04:36.183Z,10.13
2019-05-29T04:05:41.331Z,10.60
2019-05-29T04:06:47.368Z,11.47
2019-05-29T04:07:50.865Z,10.83
2019-05-29T04:08:54.729Z,10.93
2019-05-29T04:09:58.964Z,10.57
2019-05-29T04:11:02.877Z,10.47
2019-05-29T04:12:07.121Z,9.87
2019-05-29T04:13:10.855Z,10.93
2019-05-29T04:14:15.772Z,11.67
2019-05-29T04:15:19.519Z,12.13
2019-05-29T04:16:25.102Z,11.97
2019-05-29T04:17:31.966Z,13.53
2019-05-29T04:18:38.192Z,12.57
2019-05-29T04:19:43.441Z,17.30
2019-05-29T04:20:49.593Z,15.57
2019-05-29T04:21:56.171Z,18.97
2019-05-29T04:23:02.549Z,19.83
2019-05-29T04:24:07.771Z,19.57
2019-05-29T04:25:12.194Z,17.87
2019-05-29T04:26:18.191Z,19.40
2019-05-29T04:27:25.419Z,17.43
2019-05-29T04:28:30.350Z,18.90
2019-05-29T04:29:36.123Z,21.53
2019-05-29T04:30:39.903Z,21.87
2019-05-29T04:31:44.133Z,20.77
2019-05-29T04:32:47.815Z,22.47
2019-05-29T04:33:51.983Z,23.07
2019-05-29T04:34:55.626Z,23.60
2019-05-29T04:35:59.845Z,23.10
2019-05-29T04:37:07.191Z,23.33
2019-05-29T04:38:09.387Z,21.53
2019-05-29T04:39:13.072Z,21.67
2019-05-29T04:40:17.288Z,19.43
2019-05-29T04:41:20.951Z,15.37
2019-05-29T04:42:25.343Z,15.13
2019-05-29T04:43:30.893Z,14.57
2019-05-29T04:44:36.232Z,14.27
2019-05-29T04:45:40.394Z,16.13
2019-05-29T04:46:44.655Z,16.23
2019-05-29T04:47:48.294Z,16.40
2019-05-29T04:48:52.602Z,16.23
2019-05-29T04:49:56.243Z,17.70
2019-05-29T04:51:00.446Z,16.20
2019-05-29T04:52:04.078Z,14.63
2019-05-29T04:53:08.299Z,16.27
2019-05-29T04:54:11.889Z,17.33
2019-05-29T04:55:16.096Z,16.13
2019-05-29T04:56:19.784Z,14.90
2019-05-29T04:57:24.027Z,15.77
2019-05-29T04:58:28.776Z,16.07
2019-05-29T04:59:33.127Z,15.93
2019-05-29T05:00:37.254Z,13.33
2019-05-29T05:01:41.573Z,13.33
2019-05-29T05:02:45.229Z,12.77
2019-05-29T05:03:49.534Z,9.93
2019-05-29T05:04:53.170Z,9.97
2019-05-29T05:05:57.397Z,8.87
2019-05-29T05:07:01.027Z,9.63
2019-05-29T05:08:05.241Z,9.10
2019-05-29T05:09:08.964Z,8.10
2019-05-29T05:10:13.401Z,8.50
2019-05-29T05:11:17.134Z,8.30
2019-05-29T05:12:21.690Z,8.17
2019-05-29T05:13:25.689Z,9.27
2019-05-29T05:14:29.918Z,8.03
2019-05-29T05:15:35.963Z,8.30
2019-05-29T05:16:40.243Z,8.30
2019-05-29T05:17:43.975Z,8.90
2019-05-29T05:18:48.591Z,8.80
2019-05-29T05:19:52.240Z,8.87
2019-05-29T05:20:56.477Z,8.43
2019-05-29T05:22:00.040Z,8.73
2019-05-29T05:23:04.789Z,7.57
2019-05-29T05:24:08.450Z,8.33
2019-05-29T05:25:12.658Z,8.50
2019-05-29T05:26:16.332Z,9.10
2019-05-29T05:27:20.572Z,8.67
2019-05-29T05:28:24.276Z,8.20
2019-05-29T05:29:28.424Z,8.53
2019-05-29T05:30:32.418Z,8.13
2019-05-29T05:31:36.759Z,8.13
2019-05-29T05:32:41.092Z,8.20
2019-05-29T05:33:45.690Z,8.13
2019-05-29T05:34:49.342Z,8.03
2019-05-29T05:35:53.588Z,8.63
2019-05-29T05:36:57.208Z,8.50
2019-05-29T05:38:01.820Z,8.57
2019-05-29T05:39:09.077Z,8.20
2019-05-29T05:40:13.890Z,8.37
2019-05-29T05:41:17.921Z,8.37
2019-05-29T05:42:22.167Z,7.97
2019-05-29T05:43:25.884Z,8.23
2019-05-29T05:44:30.766Z,7.97
2019-05-29T05:45:39.250Z,8.20
2019-05-29T05:46:48.988Z,7.67
2019-05-29T05:47:57.383Z,7.93
2019-05-29T05:48:58.705Z,9.67
2019-05-29T05:50:02.373Z,9.93
2019-05-29T05:51:07.853Z,9.10
2019-05-29T05:52:11.611Z,7.87
2019-05-29T05:53:15.845Z,8.10
2019-05-29T05:54:19.481Z,8.23
2019-05-29T05:55:23.731Z,7.40
2019-05-29T05:56:33.587Z,7.30
2019-05-29T05:57:37.985Z,8.40
2019-05-29T05:58:42.185Z,8.30
2019-05-29T05:59:46.818Z,10.73
2019-05-29T06:00:50.486Z,9.00
2019-05-29T06:01:56.058Z,8.80
2019-05-29T06:02:59.875Z,8.00
2019-05-29T06:04:04.088Z,8.37
2019-05-29T06:05:08.040Z,8.70
2019-05-29T06:06:12.483Z,8.33
2019-05-29T06:07:16.140Z,8.37
2019-05-29T06:08:22.944Z,7.87
2019-05-29T06:09:26.668Z,8.40
2019-05-29T06:10:31.987Z,8.10
2019-05-29T06:11:38.331Z,8.03
2019-05-29T06:12:45.772Z,7.70
2019-05-29T06:13:49.811Z,7.90
2019-05-29T06:14:54.024Z,8.13
2019-05-29T06:15:57.688Z,7.97
2019-05-29T06:17:01.828Z,7.20
2019-05-29T06:18:20.703Z,8.10
2019-05-29T06:19:11.450Z,7.63
2019-05-29T06:20:15.323Z,8.43
2019-05-29T06:21:19.560Z,7.30
2019-05-29T06:22:23.121Z,8.20
2019-05-29T06:23:27.281Z,7.60
2019-05-29T06:24:30.910Z,8.03
2019-05-29T06:25:36.863Z,7.73
2019-05-29T06:26:41.050Z,7.00
2019-05-29T06:27:45.347Z,7.80
2019-05-29T06:28:49.047Z,7.27
2019-05-29T06:29:53.256Z,7.90
2019-05-29T06:30:57.006Z,7.00
2019-05-29T06:32:01.228Z,6.80
2019-05-29T06:33:04.877Z,6.90
2019-05-29T06:34:09.091Z,7.87
2019-05-29T06:35:13.898Z,7.93
2019-05-29T06:36:18.183Z,7.20
2019-05-29T06:37:21.914Z,7.17
2019-05-29T06:38:27.631Z,7.03
2019-05-29T06:39:33.621Z,7.87
2019-05-29T06:40:42.151Z,7.30
2019-05-29T06:41:45.912Z,6.57
2019-05-29T06:42:54.470Z,6.50
2019-05-29T06:43:59.564Z,7.07
2019-05-29T06:45:04.217Z,6.37
2019-05-29T06:46:10.706Z,6.63
2019-05-29T06:47:15.033Z,7.40
2019-05-29T06:48:41.916Z,6.53
2019-05-29T06:49:33.898Z,5.90
2019-05-29T06:50:39.231Z,6.53
2019-05-29T06:51:43.561Z,6.77
2019-05-29T06:52:47.744Z,7.67
2019-05-29T06:53:52.074Z,6.33
2019-05-29T06:54:55.653Z,7.03
2019-05-29T06:56:01.544Z,7.03
2019-05-29T06:57:06.954Z,6.80
2019-05-29T06:58:11.154Z,6.63
2019-05-29T06:59:14.862Z,6.77
2019-05-29T07:00:34.453Z,7.60
2019-05-29T07:01:25.035Z,6.67
2019-05-29T07:02:31.762Z,7.33
2019-05-29T07:03:35.594Z,6.33
2019-05-29T07:04:42.794Z,6.87
2019-05-29T07:05:51.315Z,6.23
2019-05-29T07:06:53.876Z,6.97
2019-05-29T07:08:13.384Z,7.67
2019-05-29T07:09:03.503Z,7.12
2019-05-29T07:10:08.219Z,6.45
2019-05-29T07:11:12.392Z,5.85
2019-05-29T07:12:16.051Z,6.83
2019-05-29T07:13:20.265Z,6.97
2019-05-29T07:14:25.342Z,6.95
2019-05-29T07:15:30.592Z,6.65
2019-05-29T07:16:45.297Z,7.08
2019-05-29T07:17:42.566Z,7.00
2019-05-29T07:19:22.916Z,5.87
2019-05-29T07:20:02.912Z,6.53
2019-05-29T07:20:57.592Z,6.25
2019-05-29T07:22:03.400Z,6.15
2019-05-29T07:23:07.055Z,5.70
2019-05-29T07:24:12.743Z,6.58
2019-05-29T07:25:16.370Z,6.92
2019-05-29T07:26:22.041Z,7.35
2019-05-29T07:27:25.705Z,6.83
2019-05-29T07:28:30.004Z,6.00
2019-05-29T07:29:33.964Z,6.45
2019-05-29T07:30:42.718Z,5.12
2019-05-29T07:31:45.317Z,5.60
2019-05-29T07:32:56.942Z,5.37
2019-05-29T07:33:54.900Z,5.60
2019-05-29T07:35:03.554Z,6.12
2019-05-29T07:36:06.534Z,5.37
2019-05-29T07:37:12.259Z,6.65
2019-05-29T07:38:15.943Z,5.75
2019-05-29T07:39:20.176Z,6.03
2019-05-29T07:40:23.820Z,5.85
2019-05-29T07:41:30.933Z,5.37
2019-05-29T07:42:34.584Z,5.45
2019-05-29T07:43:39.675Z,5.33
2019-05-29T07:44:44.039Z,5.05
2019-05-29T07:45:48.737Z,4.53
2019-05-29T07:46:52.431Z,4.58
2019-05-29T07:47:56.707Z,5.35
2019-05-29T07:49:00.769Z,4.60
2019-05-29T07:50:06.784Z,5.28
2019-05-29T07:51:10.433Z,4.75
2019-05-29T07:52:14.736Z,4.65
2019-05-29T07:53:18.793Z,4.87
2019-05-29T07:54:23.039Z,4.65
2019-05-29T07:55:26.750Z,5.00
2019-05-29T07:56:31.299Z,5.58
2019-05-29T07:57:35.376Z,6.30
2019-05-29T07:58:42.222Z,4.45
2019-05-29T07:59:46.791Z,4.30
2019-05-29T08:01:09.353Z,4.42
2019-05-29T08:01:56.456Z,4.90
2019-05-29T08:03:00.853Z,5.20
2019-05-29T08:04:04.494Z,5.20
2019-05-29T08:05:09.536Z,5.25
2019-05-29T08:06:13.545Z,4.92
2019-05-29T08:07:17.764Z,5.08
2019-05-29T08:08:21.413Z,5.60
2019-05-29T08:09:25.627Z,4.60
2019-05-29T08:10:29.324Z,3.98
2019-05-29T08:11:36.465Z,4.28
2019-05-29T08:12:44.445Z,4.47
2019-05-29T08:13:46.038Z,4.50
2019-05-29T08:14:50.335Z,3.85
2019-05-29T08:16:02.638Z,4.05
2019-05-29T08:17:00.512Z,4.20
2019-05-29T08:18:04.808Z,3.75
2019-05-29T08:19:08.440Z,4.20
2019-05-29T08:20:13.163Z,4.15
2019-05-29T08:21:17.236Z,4.40
2019-05-29T08:22:33.936Z,4.42
2019-05-29T08:23:26.947Z,4.97
2019-05-29T08:24:31.150Z,5.40
2019-05-29T08:25:34.780Z,5.40
2019-05-29T08:26:38.944Z,4.60
2019-05-29T08:27:42.704Z,4.25
2019-05-29T08:28:46.966Z,4.30
2019-05-29T08:29:51.167Z,4.78
2019-05-29T08:30:56.591Z,4.35
2019-05-29T08:32:00.741Z,4.40
2019-05-29T08:33:04.967Z,4.30
2019-05-29T08:34:08.601Z,4.40
2019-05-29T08:35:13.349Z,4.80
2019-05-29T08:36:16.989Z,4.35
2019-05-29T08:37:21.289Z,4.33
2019-05-29T08:38:24.857Z,4.55
2019-05-29T08:39:35.885Z,5.92
2019-05-29T08:40:34.415Z,4.50
2019-05-29T08:41:39.206Z,5.20
2019-05-29T08:42:43.233Z,5.05
2019-05-29T08:43:48.696Z,5.33
2019-05-29T08:44:52.343Z,5.50
2019-05-29T08:45:56.917Z,5.25
2019-05-29T08:47:09.568Z,5.10
2019-05-29T08:48:06.616Z,4.90
2019-05-29T08:49:10.265Z,4.40
2019-05-29T08:50:18.624Z,4.87
2019-05-29T08:51:20.432Z,4.97
2019-05-29T08:52:24.653Z,4.37
2019-05-29T08:53:28.336Z,4.25
2019-05-29T08:54:32.486Z,4.80
2019-05-29T08:55:36.151Z,4.10
2019-05-29T08:56:40.438Z,4.33
2019-05-29T08:57:44.321Z,3.65
2019-05-29T08:58:48.647Z,3.65
2019-05-29T08:59:52.680Z,3.30
2019-05-29T09:00:57.363Z,3.60
2019-05-29T09:02:01.091Z,3.75
2019-05-29T09:03:05.718Z,3.98
2019-05-29T09:04:09.402Z,3.50
2019-05-29T09:05:13.715Z,3.45
2019-05-29T09:06:17.795Z,3.40
2019-05-29T09:07:22.360Z,2.50
2019-05-29T09:08:25.985Z,2.80
2019-05-29T09:09:30.182Z,2.75
2019-05-29T09:10:33.831Z,3.55
2019-05-29T09:11:38.083Z,2.83
2019-05-29T09:12:46.171Z,2.90
2019-05-29T09:13:48.062Z,3.00
2019-05-29T09:14:51.711Z,3.00
2019-05-29T09:15:55.923Z,2.15
2019-05-29T09:16:59.587Z,2.52
2019-05-29T09:18:04.194Z,2.98
2019-05-29T09:19:07.853Z,2.95
2019-05-29T09:20:28.386Z,3.00
2019-05-29T09:21:19.075Z,3.40
2019-05-29T09:22:23.403Z,3.22
2019-05-29T09:23:27.067Z,2.83
2019-05-29T09:24:31.817Z,3.17
2019-05-29T09:25:35.496Z,2.87
2019-05-29T09:26:40.021Z,3.17
2019-05-29T09:27:43.655Z,3.02
2019-05-29T09:28:48.012Z,2.65
2019-05-29T09:29:52.038Z,2.08
2019-05-29T09:30:56.257Z,2.42
2019-05-29T09:31:59.914Z,2.52
2019-05-29T09:33:04.203Z,2.47
2019-05-29T09:34:07.751Z,2.55
2019-05-29T09:35:12.492Z,2.45
2019-05-29T09:36:17.163Z,2.85
2019-05-29T09:37:22.442Z,2.95
2019-05-29T09:38:26.280Z,2.90
2019-05-29T09:39:30.527Z,2.70
2019-05-29T09:40:34.164Z,2.20
2019-05-29T09:41:38.379Z,2.85
2019-05-29T09:42:42.043Z,2.77
2019-05-29T09:43:58.426Z,3.00
2019-05-29T09:44:51.620Z,3.40
2019-05-29T09:45:55.933Z,3.60
2019-05-29T09:47:00.489Z,3.33
2019-05-29T09:48:05.145Z,3.45
2019-05-29T09:49:08.784Z,4.28
2019-05-29T09:50:13.310Z,2.70
2019-05-29T09:51:21.380Z,2.67
2019-05-29T09:52:23.361Z,3.20
2019-05-29T09:53:27.406Z,2.83
2019-05-29T09:54:31.732Z,3.40
2019-05-29T09:55:35.401Z,3.80
2019-05-29T09:56:39.651Z,2.80
2019-05-29T09:57:43.332Z,2.67
2019-05-29T09:58:47.703Z,3.47
2019-05-29T09:59:53.826Z,2.92
2019-05-29T10:01:16.186Z,2.72
2019-05-29T10:02:05.872Z,2.47
2019-05-29T10:03:08.743Z,2.60
2019-05-29T10:04:12.376Z,2.37
2019-05-29T10:05:16.709Z,2.60
2019-05-29T10:06:20.340Z,2.65
2019-05-29T10:07:24.555Z,2.67
2019-05-29T10:08:28.206Z,2.40
2019-05-29T10:09:32.419Z,2.45
2019-05-29T10:10:36.074Z,2.62
2019-05-29T10:11:40.309Z,3.00
2019-05-29T10:12:43.933Z,2.77
2019-05-29T10:13:48.130Z,2.90
2019-05-29T10:14:51.667Z,3.17
2019-05-29T10:15:57.223Z,3.12
2019-05-29T10:17:05.890Z,3.10
2019-05-29T10:18:18.204Z,3.17
2019-05-29T10:19:12.855Z,2.65
2019-05-29T10:20:17.858Z,2.83
2019-05-29T10:21:38.633Z,2.75
2019-05-29T10:22:29.223Z,3.05
2019-05-29T10:23:32.938Z,3.65
2019-05-29T10:24:37.513Z,2.87
2019-05-29T10:25:41.202Z,2.90
2019-05-29T10:26:45.345Z,3.40
2019-05-29T10:27:49.017Z,3.00
2019-05-29T10:29:58.653Z,2.90
2019-05-29T10:32:08.379Z,2.85
2019-05-29T10:32:52.797Z,3.00
2019-05-29T10:33:12.611Z,2.40
2019-05-29T10:34:16.455Z,2.60
2019-05-29T10:34:38.779Z,2.80
2019-05-29T10:35:21.082Z,2.45
2019-05-29T10:36:24.795Z,2.70
2019-05-29T10:37:28.997Z,2.70
2019-05-29T10:38:32.660Z,2.37
2019-05-29T10:39:36.860Z,2.33
2019-05-29T10:40:40.530Z,2.17
2019-05-29T10:41:44.789Z,2.55
2019-05-29T10:42:49.073Z,2.52
2019-05-29T10:43:53.468Z,2.60
2019-05-29T10:44:57.157Z,2.58
2019-05-29T10:46:01.389Z,2.72
2019-05-29T10:47:05.280Z,2.95
2019-05-29T10:48:09.867Z,2.35
2019-05-29T10:49:13.864Z,2.50
2019-05-29T10:50:18.500Z,3.12
2019-05-29T10:51:22.174Z,2.42
2019-05-29T10:52:26.428Z,2.45
2019-05-29T10:53:30.081Z,2.00
2019-05-29T10:54:34.305Z,2.00
2019-05-29T10:55:38.243Z,1.77
2019-05-29T10:56:42.465Z,2.45
2019-05-29T10:57:46.666Z,2.25
2019-05-29T10:58:56.483Z,2.27
2019-05-29T10:59:58.314Z,2.80
2019-05-29T11:01:02.917Z,2.70
2019-05-29T11:02:06.638Z,2.33
2019-05-29T11:03:11.285Z,2.45
2019-05-29T11:04:14.931Z,2.98
2019-05-29T11:05:19.370Z,2.90
2019-05-29T11:06:23.162Z,3.17
2019-05-29T11:07:27.382Z,2.90
2019-05-29T11:08:31.064Z,3.08
2019-05-29T11:09:44.334Z,2.60
2019-05-29T11:10:40.518Z,2.62
2019-05-29T11:11:45.951Z,2.50
2019-05-29T11:12:50.622Z,2.52
2019-05-29T11:13:55.247Z,2.37
2019-05-29T11:14:59.021Z,2.60
2019-05-29T11:16:03.236Z,2.10
2019-05-29T11:17:06.892Z,2.25
2019-05-29T11:18:11.104Z,2.20
2019-05-29T11:19:14.921Z,2.47
2019-05-29T11:20:19.951Z,2.25
2019-05-29T11:21:23.584Z,2.35
2019-05-29T11:22:27.802Z,2.17
2019-05-29T11:23:31.486Z,2.15
2019-05-29T11:24:35.766Z,2.40
2019-05-29T11:25:39.394Z,2.15
2019-05-29T11:26:43.634Z,2.35
2019-05-29T11:27:48.485Z,2.50
2019-05-29T11:28:52.745Z,2.90
2019-05-29T11:29:57.107Z,2.52
2019-05-29T11:31:06.169Z,2.70
2019-05-29T11:32:07.091Z,3.10
2019-05-29T11:33:11.321Z,2.80
2019-05-29T11:34:15.052Z,2.75
2019-05-29T11:35:19.305Z,2.92
2019-05-29T11:36:22.944Z,2.40
2019-05-29T11:37:27.170Z,2.50
2019-05-29T11:38:30.818Z,2.17
2019-05-29T11:39:35.011Z,2.40
2019-05-29T11:40:38.764Z,2.58
2019-05-29T11:41:43.094Z,2.42
2019-05-29T11:42:46.719Z,2.47
2019-05-29T11:43:50.950Z,2.12
2019-05-29T11:44:55.291Z,2.52
2019-05-29T11:45:59.915Z,2.10
2019-05-29T11:47:03.561Z,2.15
2019-05-29T11:48:08.074Z,2.35
2019-05-29T11:49:11.744Z,2.00
2019-05-29T11:50:19.847Z,2.00
2019-05-29T11:51:22.116Z,3.02
2019-05-29T11:52:41.645Z,2.52
2019-05-29T11:53:32.175Z,1.95
2019-05-29T11:54:36.422Z,1.92
2019-05-29T11:55:40.073Z,1.70
2019-05-29T11:56:44.311Z,2.02
2019-05-29T11:57:47.948Z,1.90
2019-05-29T11:58:52.752Z,2.12
2019-05-29T12:00:00.173Z,2.02
2019-05-29T12:01:02.827Z,1.92
2019-05-29T12:02:06.578Z,1.98
2019-05-29T12:03:13.765Z,1.92
2019-05-29T12:04:25.886Z,2.00
2019-05-29T12:05:23.756Z,1.90
2019-05-29T12:06:27.407Z,1.80
2019-05-29T12:07:31.972Z,1.72
2019-05-29T12:08:35.905Z,1.90
2019-05-29T12:09:40.165Z,2.00
2019-05-29T12:10:43.913Z,1.80
2019-05-29T12:11:48.210Z,1.62
2019-05-29T12:12:53.254Z,1.72
2019-05-29T12:13:58.177Z,2.10
2019-05-29T12:15:11.007Z,1.70
2019-05-29T12:16:08.161Z,1.77
2019-05-29T12:17:13.227Z,1.70
2019-05-29T12:18:24.149Z,2.22
2019-05-29T12:19:23.401Z,1.90
2019-05-29T12:20:29.090Z,2.22
2019-05-29T12:21:33.261Z,2.05
2019-05-29T12:22:37.485Z,2.30
2019-05-29T12:23:41.151Z,2.00
2019-05-29T12:24:45.363Z,1.98
2019-05-29T12:25:49.109Z,2.05
2019-05-29T12:26:54.473Z,2.12
2019-05-29T12:27:59.205Z,2.10
2019-05-29T12:29:11.003Z,2.05
2019-05-29T12:30:12.035Z,1.87
2019-05-29T12:31:16.253Z,1.80
2019-05-29T12:32:20.138Z,1.70
2019-05-29T12:33:24.425Z,1.85
2019-05-29T12:34:28.248Z,2.12
2019-05-29T12:35:32.493Z,2.37
2019-05-29T12:36:36.112Z,2.72
2019-05-29T12:37:40.802Z,2.58
2019-05-29T12:38:44.419Z,1.65
2019-05-29T12:39:48.682Z,1.60
2019-05-29T12:40:53.432Z,1.70
2019-05-29T12:41:57.806Z,2.10
2019-05-29T12:43:01.950Z,1.80
2019-05-29T12:44:06.352Z,2.00
2019-05-29T12:45:11.121Z,1.98
2019-05-29T12:46:15.462Z,2.20
2019-05-29T12:47:19.079Z,2.02
2019-05-29T12:48:23.289Z,2.02
2019-05-29T12:49:26.941Z,2.12
2019-05-29T12:50:34.401Z,2.00
2019-05-29T12:51:38.573Z,1.90
2019-05-29T12:52:43.283Z,2.30
2019-05-29T12:53:47.286Z,2.10
2019-05-29T12:54:51.513Z,2.05
2019-05-29T12:55:56.099Z,1.90
2019-05-29T12:57:02.222Z,1.95
2019-05-29T12:58:06.351Z,2.05
2019-05-29T12:59:10.760Z,1.70
2019-05-29T13:00:19.056Z,2.02
2019-05-29T13:01:23.328Z,2.08
2019-05-29T13:02:26.965Z,2.20
2019-05-29T13:03:31.273Z,1.90
2019-05-29T13:05:04.982Z,2.00
2019-05-29T13:05:40.942Z,1.72
2019-05-29T13:06:44.750Z,1.90
2019-05-29T13:07:49.000Z,2.10
2019-05-29T13:08:52.651Z,2.25
2019-05-29T13:09:56.900Z,2.22
2019-05-29T13:11:00.565Z,2.35
2019-05-29T13:12:05.264Z,1.90
2019-05-29T13:13:11.162Z,2.02
2019-05-29T13:14:14.823Z,2.30
2019-05-29T13:15:18.978Z,2.12
2019-05-29T13:16:24.688Z,2.10
2019-05-29T13:17:28.343Z,2.10
2019-05-29T13:18:32.871Z,2.33
2019-05-29T13:19:36.428Z,2.65
2019-05-29T13:20:40.644Z,2.80
2019-05-29T13:21:45.520Z,2.15
2019-05-29T13:22:49.760Z,1.82
2019-05-29T13:23:53.410Z,1.90
2019-05-29T13:24:57.648Z,2.80
2019-05-29T13:26:01.518Z,2.05
2019-05-29T13:27:06.320Z,1.95
2019-05-29T13:28:10.092Z,1.90
2019-05-29T13:29:14.413Z,2.10
2019-05-29T13:30:19.798Z,2.30
2019-05-29T13:31:24.038Z,2.33
2019-05-29T13:32:27.889Z,1.98
2019-05-29T13:33:32.126Z,2.52
2019-05-29T13:34:35.702Z,2.55
2019-05-29T13:35:40.006Z,2.08
2019-05-29T13:36:43.712Z,1.92
2019-05-29T13:37:48.059Z,2.22
2019-05-29T13:38:51.680Z,2.02
2019-05-29T13:39:55.956Z,2.40
2019-05-29T13:41:00.419Z,1.98
2019-05-29T13:42:09.725Z,2.00
2019-05-29T13:43:14.897Z,2.20
2019-05-29T13:44:16.185Z,2.15
2019-05-29T13:45:21.349Z,2.00
2019-05-29T13:46:27.187Z,1.87
2019-05-29T13:47:30.989Z,2.30
2019-05-29T13:48:35.230Z,2.35
2019-05-29T13:49:38.880Z,2.42
2019-05-29T13:50:43.301Z,2.22
2019-05-29T13:51:46.952Z,2.35
2019-05-29T13:52:51.245Z,1.52
2019-05-29T13:54:03.642Z,1.90
2019-05-29T13:55:01.443Z,2.00
2019-05-29T13:56:06.289Z,2.00
2019-05-29T13:57:10.987Z,1.95
2019-05-29T13:58:14.537Z,2.00
2019-05-29T13:59:18.777Z,1.72
2019-05-29T14:00:33.720Z,1.82
2019-05-29T14:01:28.474Z,2.05
2019-05-29T14:02:32.150Z,1.75
2019-05-29T14:03:36.100Z,2.08
2019-05-29T14:04:39.744Z,2.25
2019-05-29T14:05:43.971Z,2.08
2019-05-29T14:06:47.596Z,2.30
2019-05-29T14:07:51.858Z,2.30
2019-05-29T14:08:55.910Z,2.10
2019-05-29T14:10:00.888Z,2.10
2019-05-29T14:11:05.076Z,2.00
2019-05-29T14:12:09.578Z,2.02
2019-05-29T14:13:13.278Z,2.02